createdAt,value
2022-12-23T00:01:15.603Z,10.40
2022-12-23T00:03:19.016Z,10.41
2022-12-23T00:05:22.499Z,10.40
2022-12-23T00:07:25.936Z,10.41
2022-12-23T00:09:31.616Z,10.43
2022-12-23T00:11:34.936Z,10.46
2022-12-23T00:13:55.933Z,10.50
2022-12-23T00:16:03.025Z,10.53
2022-12-23T00:18:06.457Z,10.50
2022-12-23T00:20:11.704Z,10.46
2022-12-23T00:22:15.007Z,10.43
2022-12-23T00:24:18.344Z,10.42
2022-12-23T00:26:24.816Z,10.34
2022-12-23T00:28:30.551Z,10.38
2022-12-23T00:30:34.014Z,10.37
2022-12-23T00:32:37.502Z,10.36
2022-12-23T00:34:40.821Z,10.35
2022-12-23T00:36:44.191Z,10.37
2022-12-23T00:39:05.745Z,10.40
2022-12-23T00:41:29.224Z,10.37
2022-12-23T00:43:33.900Z,10.39
2022-12-23T00:45:37.766Z,10.36
2022-12-23T00:47:58.799Z,10.32
2022-12-23T00:50:02.106Z,10.27
2022-12-23T00:52:07.550Z,10.19
2022-12-23T00:54:11.041Z,9.79
2022-12-23T00:56:14.461Z,10.08
2022-12-23T00:58:18.804Z,10.12
2022-12-23T01:00:44.494Z,10.10
2022-12-23T01:03:05.666Z,10.23
2022-12-23T01:05:37.443Z,10.20
2022-12-23T01:07:42.331Z,10.19
2022-12-23T01:09:45.882Z,10.23
2022-12-23T01:11:49.271Z,10.15
2022-12-23T01:13:52.655Z,10.13
2022-12-23T01:16:02.118Z,10.20
2022-12-23T01:18:05.681Z,10.18
2022-12-23T01:20:09.916Z,10.19
2022-12-23T01:22:13.279Z,10.18
2022-12-23T01:24:16.699Z,10.07
2022-12-23T01:26:20.010Z,10.01
2022-12-23T01:28:23.347Z,9.91
2022-12-23T01:30:27.258Z,9.89
2022-12-23T01:32:31.947Z,10.05
2022-12-23T01:34:37.408Z,10.12
2022-12-23T01:36:41.083Z,10.18
2022-12-23T01:38:45.002Z,10.13
2022-12-23T01:40:48.426Z,10.14
2022-12-23T01:42:50.911Z,10.19
2022-12-23T01:45:00.532Z,10.27
2022-12-23T01:47:04.938Z,10.29
2022-12-23T01:49:09.807Z,10.26
2022-12-23T01:51:15.912Z,10.29
2022-12-23T01:53:21.835Z,10.39
2022-12-23T01:55:27.809Z,10.41
2022-12-23T01:57:31.650Z,10.39
2022-12-23T01:59:52.782Z,10.30
2022-12-23T02:02:13.861Z,10.29
2022-12-23T02:04:21.605Z,10.33
2022-12-23T02:06:46.227Z,10.15
2022-12-23T02:09:07.696Z,10.22
2022-12-23T02:11:35.334Z,10.21
2022-12-23T02:14:03.303Z,10.29
2022-12-23T02:16:18.702Z,10.18
2022-12-23T02:18:47.119Z,10.10
2022-12-23T02:21:12.152Z,10.11
2022-12-23T02:23:51.205Z,10.21
2022-12-23T02:26:10.501Z,10.26
2022-12-23T02:28:57.563Z,10.31
2022-12-23T02:31:10.437Z,10.26
2022-12-23T02:33:29.078Z,10.35
2022-12-23T02:35:41.760Z,10.34
2022-12-23T02:37:54.126Z,10.19
2022-12-23T02:40:02.928Z,10.28
2022-12-23T02:42:12.246Z,10.33
2022-12-23T02:44:24.748Z,10.33
2022-12-23T02:46:34.809Z,10.34
2022-12-23T02:48:42.577Z,10.42
2022-12-23T02:50:47.073Z,10.41
2022-12-23T02:52:52.865Z,10.31
2022-12-23T02:55:02.016Z,10.25
2022-12-23T02:57:08.717Z,10.28
2022-12-23T02:59:18.496Z,10.25
2022-12-23T03:01:22.230Z,9.86
2022-12-23T03:03:27.876Z,10.21
2022-12-23T03:05:35.705Z,10.27
2022-12-23T03:07:43.677Z,10.34
2022-12-23T03:09:58.177Z,10.38
2022-12-23T03:12:07.952Z,10.28
2022-12-23T03:14:29.491Z,10.33
2022-12-23T03:16:45.254Z,10.29
2022-12-23T03:19:03.537Z,10.28
2022-12-23T03:21:11.996Z,10.34
2022-12-23T03:23:22.542Z,10.32
2022-12-23T03:25:32.492Z,10.10
2022-12-23T03:27:41.454Z,10.40
2022-12-23T03:29:52.604Z,10.44
2022-12-23T03:32:00.928Z,10.48
2022-12-23T03:34:11.110Z,10.37
2022-12-23T03:36:19.324Z,10.34
2022-12-23T03:38:24.026Z,10.24
2022-12-23T03:40:31.580Z,10.30
2022-12-23T03:42:37.811Z,10.20
2022-12-23T03:45:10.687Z,10.14
2022-12-23T03:47:13.085Z,10.26
2022-12-23T03:49:25.278Z,10.17
2022-12-23T03:51:34.656Z,10.18
2022-12-23T03:53:43.295Z,10.18
2022-12-23T03:55:52.216Z,10.13
2022-12-23T03:58:02.068Z,10.13
2022-12-23T04:00:06.641Z,10.11
2022-12-23T04:02:14.352Z,9.75
2022-12-23T04:04:26.291Z,10.15
2022-12-23T04:06:37.339Z,10.13
2022-12-23T04:08:42.929Z,10.10
2022-12-23T04:10:46.893Z,10.14
2022-12-23T04:12:51.155Z,10.24
2022-12-23T04:14:54.825Z,10.30
2022-12-23T04:16:59.265Z,10.25
2022-12-23T04:19:02.790Z,10.23
2022-12-23T04:21:07.535Z,10.13
2022-12-23T04:23:10.941Z,9.96
2022-12-23T04:25:15.676Z,10.13
2022-12-23T04:27:19.026Z,10.19
2022-12-23T04:29:22.394Z,10.26
2022-12-23T04:31:25.751Z,10.23
2022-12-23T04:33:29.130Z,10.26
2022-12-23T04:35:32.768Z,10.19
2022-12-23T04:37:37.735Z,10.24
2022-12-23T04:39:41.083Z,10.28
2022-12-23T04:41:44.389Z,10.34
2022-12-23T04:43:52.810Z,10.37
2022-12-23T04:45:56.727Z,10.35
2022-12-23T04:48:00.185Z,10.39
2022-12-23T04:50:03.883Z,10.40
2022-12-23T04:52:07.748Z,10.38
2022-12-23T04:54:12.446Z,10.28
2022-12-23T04:56:15.855Z,10.31
2022-12-23T04:58:21.959Z,10.36
2022-12-23T05:00:25.520Z,10.39
2022-12-23T05:02:28.966Z,10.38
2022-12-23T05:04:32.645Z,10.32
2022-12-23T05:06:36.083Z,10.41
2022-12-23T05:08:39.604Z,10.46
2022-12-23T05:10:45.728Z,10.38
2022-12-23T05:12:49.102Z,10.52
2022-12-23T05:14:53.399Z,10.36
2022-12-23T05:16:59.616Z,10.44
2022-12-23T05:19:07.192Z,9.92
2022-12-23T05:21:10.790Z,10.29
2022-12-23T05:23:14.274Z,10.41
2022-12-23T05:25:17.884Z,10.32
2022-12-23T05:27:22.649Z,10.36
2022-12-23T05:29:26.023Z,10.42
2022-12-23T05:31:29.526Z,10.34
2022-12-23T05:33:33.981Z,10.28
2022-12-23T05:35:37.471Z,10.31
2022-12-23T05:37:40.840Z,10.33
2022-12-23T05:39:44.177Z,10.30
2022-12-23T05:41:47.562Z,10.18
2022-12-23T05:43:52.401Z,10.17
2022-12-23T05:45:56.075Z,10.21
2022-12-23T05:47:59.618Z,10.17
2022-12-23T05:50:03.308Z,10.18
2022-12-23T05:52:07.913Z,10.18
2022-12-23T05:54:11.213Z,10.11
2022-12-23T05:56:14.571Z,10.13
2022-12-23T05:58:18.487Z,10.10
2022-12-23T06:00:23.540Z,10.11
2022-12-23T06:02:27.128Z,10.08
2022-12-23T06:04:30.667Z,10.11
2022-12-23T06:06:34.061Z,10.13
2022-12-23T06:08:37.622Z,10.19
2022-12-23T06:10:40.991Z,10.21
2022-12-23T06:12:44.364Z,10.21
2022-12-23T06:14:47.697Z,10.28
2022-12-23T06:16:52.543Z,10.19
2022-12-23T06:18:56.692Z,10.17
2022-12-23T06:21:01.715Z,10.21
2022-12-23T06:23:06.074Z,10.11
2022-12-23T06:25:10.095Z,10.22
2022-12-23T06:27:13.425Z,10.29
2022-12-23T06:29:16.767Z,10.35
2022-12-23T06:31:20.168Z,10.27
2022-12-23T06:33:25.645Z,9.89
2022-12-23T06:35:29.115Z,10.36
2022-12-23T06:37:32.450Z,10.43
2022-12-23T06:39:35.771Z,10.46
2022-12-23T06:41:39.268Z,10.42
2022-12-23T06:43:42.723Z,10.41
2022-12-23T06:45:48.361Z,10.46
2022-12-23T06:47:51.821Z,10.54
2022-12-23T06:49:56.490Z,10.54
2022-12-23T06:51:59.973Z,10.38
2022-12-23T06:54:03.554Z,10.44
2022-12-23T06:56:07.955Z,10.46
2022-12-23T06:58:11.465Z,10.51
2022-12-23T07:00:16.379Z,10.51
2022-12-23T07:02:19.830Z,10.47
2022-12-23T07:04:23.283Z,10.53
2022-12-23T07:06:28.020Z,10.55
2022-12-23T07:08:31.359Z,10.65
2022-12-23T07:10:34.993Z,10.59
2022-12-23T07:12:38.509Z,10.59
2022-12-23T07:14:41.915Z,10.58
2022-12-23T07:16:45.316Z,10.70
2022-12-23T07:18:48.839Z,10.52
2022-12-23T07:20:52.941Z,10.40
2022-12-23T07:22:58.229Z,10.38
2022-12-23T07:25:01.615Z,10.34
2022-12-23T07:27:05.280Z,10.42
2022-12-23T07:29:08.783Z,10.35
2022-12-23T07:31:12.300Z,10.32
2022-12-23T07:33:16.175Z,10.42
2022-12-23T07:35:20.446Z,10.38
2022-12-23T07:37:23.916Z,10.43
2022-12-23T07:39:28.813Z,10.27
2022-12-23T07:41:32.204Z,10.49
2022-12-23T07:43:42.550Z,10.46
2022-12-23T07:45:45.985Z,10.47
2022-12-23T07:47:53.286Z,10.50
2022-12-23T07:49:56.673Z,10.40
2022-12-23T07:52:00.101Z,10.35
2022-12-23T07:54:03.509Z,10.34
2022-12-23T07:56:09.133Z,10.30
2022-12-23T07:58:12.450Z,10.38
2022-12-23T08:00:16.399Z,10.42
2022-12-23T08:02:22.051Z,10.45
2022-12-23T08:04:25.671Z,10.29
2022-12-23T08:06:29.034Z,10.16
2022-12-23T08:08:32.907Z,10.19
2022-12-23T08:10:36.236Z,10.24
2022-12-23T08:12:41.070Z,10.27
2022-12-23T08:14:45.581Z,10.26
2022-12-23T08:16:49.436Z,10.21
2022-12-23T08:18:52.842Z,10.24
2022-12-23T08:20:57.235Z,10.23
2022-12-23T08:23:00.586Z,10.17
2022-12-23T08:25:04.321Z,10.15
2022-12-23T08:27:07.702Z,10.32
2022-12-23T08:29:12.521Z,10.42
2022-12-23T08:31:17.771Z,10.39
2022-12-23T08:33:21.210Z,10.43
2022-12-23T08:35:24.623Z,10.44
2022-12-23T08:37:27.967Z,10.30
2022-12-23T08:39:31.345Z,10.36
2022-12-23T08:41:38.300Z,10.46
2022-12-23T08:43:41.848Z,10.47
2022-12-23T08:45:46.696Z,10.47
2022-12-23T08:47:50.130Z,10.49
2022-12-23T08:49:53.535Z,10.58
2022-12-23T08:51:57.034Z,10.64
2022-12-23T08:54:01.838Z,10.70
2022-12-23T08:56:07.181Z,10.65
2022-12-23T08:58:11.142Z,10.57
2022-12-23T09:00:15.386Z,10.56
2022-12-23T09:02:22.209Z,10.47
2022-12-23T09:04:25.811Z,10.35
2022-12-23T09:06:33.631Z,10.42
2022-12-23T09:08:37.780Z,10.26
2022-12-23T09:10:42.652Z,10.04
2022-12-23T09:12:46.284Z,10.11
2022-12-23T09:14:49.663Z,10.05
2022-12-23T09:16:53.107Z,10.16
2022-12-23T09:18:58.224Z,10.19
2022-12-23T09:21:04.411Z,10.10
2022-12-23T09:23:08.154Z,10.14
2022-12-23T09:25:11.543Z,10.24
2022-12-23T09:27:14.895Z,10.22
2022-12-23T09:29:18.218Z,10.21
2022-12-23T09:31:26.792Z,10.05
2022-12-23T09:33:32.700Z,10.21
2022-12-23T09:35:37.409Z,10.28
2022-12-23T09:37:40.885Z,10.22
2022-12-23T09:39:44.496Z,10.27
2022-12-23T09:42:01.261Z,10.24
2022-12-23T09:44:22.554Z,10.19
2022-12-23T09:46:31.000Z,10.09
2022-12-23T09:48:42.660Z,10.18
2022-12-23T09:50:47.467Z,10.21
2022-12-23T09:52:59.922Z,10.30
2022-12-23T09:55:03.252Z,10.24
2022-12-23T09:57:19.843Z,10.24
2022-12-23T09:59:34.947Z,10.23
2022-12-23T10:01:46.023Z,10.19
2022-12-23T10:04:16.265Z,10.08
2022-12-23T10:06:26.618Z,10.12
2022-12-23T10:08:34.148Z,10.04
2022-12-23T10:10:42.100Z,10.09
2022-12-23T10:12:48.915Z,10.04
2022-12-23T10:14:56.921Z,10.06
2022-12-23T10:17:06.688Z,10.08
2022-12-23T10:19:16.844Z,10.00
2022-12-23T10:21:31.250Z,9.94
2022-12-23T10:23:38.598Z,9.93
2022-12-23T10:25:50.067Z,10.19
2022-12-23T10:27:53.493Z,10.26
2022-12-23T10:30:09.450Z,10.34
2022-12-23T10:32:29.428Z,10.40
2022-12-23T10:34:40.665Z,10.44
2022-12-23T10:36:54.666Z,10.47
2022-12-23T10:39:05.389Z,10.46
2022-12-23T10:41:18.087Z,10.48
2022-12-23T10:43:27.732Z,10.46
2022-12-23T10:45:49.519Z,10.42
2022-12-23T10:48:08.621Z,10.40
2022-12-23T10:50:45.869Z,10.39
2022-12-23T10:52:53.557Z,10.40
2022-12-23T10:54:56.905Z,10.40
2022-12-23T10:57:01.231Z,10.41
2022-12-23T10:59:06.573Z,10.49
2022-12-23T11:01:21.855Z,10.98
2022-12-23T11:03:32.280Z,11.18
2022-12-23T11:05:36.845Z,11.08
2022-12-23T11:07:45.389Z,10.92
2022-12-23T11:09:55.218Z,10.73
2022-12-23T11:12:01.127Z,10.55
2022-12-23T11:14:04.509Z,10.48
2022-12-23T11:16:15.960Z,10.35
2022-12-23T11:18:21.862Z,10.29
2022-12-23T11:20:25.905Z,10.24
2022-12-23T11:22:29.508Z,10.29
2022-12-23T11:24:37.964Z,10.25
2022-12-23T11:26:48.322Z,10.16
2022-12-23T11:29:03.864Z,10.30
2022-12-23T11:31:11.819Z,10.33
2022-12-23T11:33:23.889Z,10.33
2022-12-23T11:35:29.448Z,10.31
2022-12-23T11:37:37.839Z,10.30
2022-12-23T11:39:47.378Z,10.30
2022-12-23T11:41:55.736Z,10.32
2022-12-23T11:44:02.523Z,10.35
2022-12-23T11:46:17.693Z,10.25
2022-12-23T11:48:29.009Z,10.21
2022-12-23T11:50:35.975Z,10.21
2022-12-23T11:52:51.679Z,10.10
2022-12-23T11:54:56.441Z,10.23
2022-12-23T11:57:04.690Z,10.24
2022-12-23T11:59:17.056Z,10.23
2022-12-23T12:01:24.810Z,10.27
2022-12-23T12:03:32.707Z,10.32
2022-12-23T12:05:39.167Z,10.21
2022-12-23T12:07:43.191Z,10.25
2022-12-23T12:09:46.545Z,10.15
2022-12-23T12:11:53.057Z,10.02
2022-12-23T12:14:01.117Z,10.04
2022-12-23T12:16:21.189Z,10.04
2022-12-23T12:18:25.355Z,10.06
2022-12-23T12:20:32.424Z,10.04
2022-12-23T12:22:40.282Z,10.10
2022-12-23T12:24:49.245Z,10.14
2022-12-23T12:26:54.641Z,10.10
2022-12-23T12:29:03.709Z,10.08
2022-12-23T12:31:17.921Z,10.14
2022-12-23T12:33:28.813Z,9.69
2022-12-23T12:35:38.908Z,9.99
2022-12-23T12:37:49.205Z,10.03
2022-12-23T12:39:56.899Z,9.99
2022-12-23T12:42:06.353Z,9.90
2022-12-23T12:44:29.035Z,9.86
2022-12-23T12:46:39.104Z,9.85
2022-12-23T12:48:48.360Z,9.80
2022-12-23T12:50:59.125Z,9.76
2022-12-23T12:53:11.292Z,9.82
2022-12-23T12:55:22.347Z,9.84
2022-12-23T12:57:26.363Z,9.74
2022-12-23T12:59:35.722Z,9.74
2022-12-23T13:01:49.330Z,9.77
2022-12-23T13:04:22.702Z,9.74
2022-12-23T13:06:32.371Z,9.57
2022-12-23T13:08:55.525Z,9.49
2022-12-23T13:11:06.750Z,9.69
2022-12-23T13:13:24.518Z,9.74
2022-12-23T13:15:35.264Z,9.70
2022-12-23T13:17:46.235Z,9.68
2022-12-23T13:19:54.467Z,9.66
2022-12-23T13:22:04.179Z,9.63
2022-12-23T13:24:17.089Z,9.58
2022-12-23T13:26:30.933Z,9.57
2022-12-23T13:28:41.411Z,9.49
2022-12-23T13:30:54.108Z,9.60
2022-12-23T13:33:08.259Z,9.53
2022-12-23T13:35:30.382Z,9.53
2022-12-23T13:37:40.579Z,9.45
2022-12-23T13:39:55.237Z,9.41
2022-12-23T13:42:05.941Z,9.41
2022-12-23T13:44:11.271Z,9.43
2022-12-23T13:46:25.529Z,9.42
2022-12-23T13:48:37.850Z,9.41
2022-12-23T13:50:46.689Z,9.42
2022-12-23T13:53:07.215Z,9.48
2022-12-23T13:55:23.045Z,9.45
2022-12-23T13:57:41.457Z,9.45
2022-12-23T14:00:04.970Z,9.48
2022-12-23T14:02:52.859Z,9.44
2022-12-23T14:05:00.819Z,9.46
2022-12-23T14:07:08.286Z,9.46
2022-12-23T14:09:16.225Z,9.53
2022-12-23T14:11:23.350Z,9.59
2022-12-23T14:13:31.146Z,9.62
2022-12-23T14:15:49.025Z,9.63
2022-12-23T14:18:08.773Z,9.66
2022-12-23T14:20:26.995Z,9.67
2022-12-23T14:22:58.593Z,9.69
2022-12-23T14:25:30.300Z,9.69
2022-12-23T14:27:51.957Z,9.60
2022-12-23T14:30:06.212Z,9.69
2022-12-23T14:32:20.859Z,9.68
2022-12-23T14:34:30.195Z,9.67
2022-12-23T14:36:33.741Z,9.67
2022-12-23T14:38:37.359Z,9.68
2022-12-23T14:40:58.182Z,9.74
2022-12-23T14:43:25.864Z,9.82
2022-12-23T14:45:34.806Z,9.78
2022-12-23T14:47:40.582Z,9.81
2022-12-23T14:49:45.566Z,9.92
2022-12-23T14:51:50.843Z,9.94
2022-12-23T14:54:13.641Z,10.01
2022-12-23T14:56:24.482Z,10.07
2022-12-23T14:58:42.387Z,10.08
2022-12-23T15:00:51.001Z,10.13
2022-12-23T15:02:58.244Z,10.06
2022-12-23T15:05:03.570Z,10.10
2022-12-23T15:07:10.095Z,10.14
2022-12-23T15:09:23.467Z,10.14
2022-12-23T15:11:29.897Z,10.11
2022-12-23T15:13:34.133Z,10.23
2022-12-23T15:15:37.599Z,10.25
2022-12-23T15:17:41.233Z,10.34
2022-12-23T15:19:48.938Z,10.27
2022-12-23T15:22:17.847Z,10.26
2022-12-23T15:24:24.401Z,10.22
2022-12-23T15:26:31.231Z,10.34
2022-12-23T15:28:38.574Z,10.35
2022-12-23T15:30:50.669Z,10.36
2022-12-23T15:32:59.572Z,10.23
2022-12-23T15:35:06.981Z,10.39
2022-12-23T15:37:14.037Z,10.23
2022-12-23T15:39:20.883Z,10.40
2022-12-23T15:41:24.358Z,10.50
2022-12-23T15:43:28.453Z,10.41
2022-12-23T15:45:36.536Z,10.32
2022-12-23T15:47:41.818Z,10.59
2022-12-23T15:49:45.920Z,10.58
2022-12-23T15:52:12.589Z,10.61
2022-12-23T15:54:23.661Z,10.72
2022-12-23T15:56:30.934Z,10.77
2022-12-23T15:58:36.437Z,10.83
2022-12-23T16:00:42.582Z,10.81
2022-12-23T16:03:03.332Z,10.83
2022-12-23T16:05:09.627Z,10.90
2022-12-23T16:07:25.597Z,10.79
2022-12-23T16:09:36.061Z,10.91
2022-12-23T16:11:48.736Z,10.93
2022-12-23T16:13:58.848Z,10.94
2022-12-23T16:16:30.305Z,10.99
2022-12-23T16:18:46.973Z,10.98
2022-12-23T16:20:54.523Z,11.02
2022-12-23T16:23:01.623Z,11.01
2022-12-23T16:25:12.870Z,11.02
2022-12-23T16:27:19.392Z,11.05
2022-12-23T16:29:23.238Z,11.21
2022-12-23T16:31:26.715Z,11.33
2022-12-23T16:33:37.509Z,11.22
2022-12-23T16:35:42.954Z,11.35
2022-12-23T16:37:51.096Z,11.87
2022-12-23T16:39:54.794Z,12.03
2022-12-23T16:41:59.589Z,12.10
2022-12-23T16:44:03.125Z,12.16
2022-12-23T16:46:08.327Z,12.16
2022-12-23T16:48:20.713Z,12.17
2022-12-23T16:50:24.651Z,12.21
2022-12-23T16:52:28.034Z,12.24
2022-12-23T16:54:31.399Z,12.29
2022-12-23T16:56:36.581Z,12.36
2022-12-23T16:58:41.374Z,12.37
2022-12-23T17:00:45.443Z,12.37
2022-12-23T17:02:49.059Z,12.28
2022-12-23T17:04:52.861Z,12.35
2022-12-23T17:06:56.237Z,12.36
2022-12-23T17:08:59.702Z,12.33
2022-12-23T17:11:03.269Z,12.28
2022-12-23T17:13:06.739Z,12.27
2022-12-23T17:15:17.945Z,12.26
2022-12-23T17:17:25.632Z,12.20
2022-12-23T17:19:29.710Z,12.12
2022-12-23T17:21:36.718Z,12.08
2022-12-23T17:23:40.654Z,12.07
2022-12-23T17:25:45.042Z,11.80
2022-12-23T17:27:49.987Z,11.99
2022-12-23T17:29:53.295Z,12.05
2022-12-23T17:31:58.195Z,12.05
2022-12-23T17:34:01.700Z,12.07
2022-12-23T17:36:05.551Z,12.08
2022-12-23T17:38:13.334Z,12.05
2022-12-23T17:40:17.807Z,12.04
2022-12-23T17:42:25.859Z,12.00
2022-12-23T17:44:29.240Z,12.03
2022-12-23T17:46:32.834Z,12.02
2022-12-23T17:48:37.951Z,12.02
2022-12-23T17:50:42.936Z,12.00
2022-12-23T17:52:46.915Z,11.85
2022-12-23T17:54:52.183Z,12.06
2022-12-23T17:56:56.106Z,12.05
2022-12-23T17:58:59.929Z,11.91
2022-12-23T18:01:03.273Z,12.03
2022-12-23T18:03:07.672Z,12.03
2022-12-23T18:05:22.629Z,12.03
2022-12-23T18:07:26.780Z,11.99
2022-12-23T18:09:30.106Z,11.98
2022-12-23T18:11:37.252Z,11.93
2022-12-23T18:13:40.618Z,11.96
2022-12-23T18:15:45.383Z,11.99
2022-12-23T18:17:48.960Z,12.04
2022-12-23T18:19:52.731Z,12.03
2022-12-23T18:21:57.634Z,12.01
2022-12-23T18:24:01.180Z,12.04
2022-12-23T18:26:04.955Z,11.99
2022-12-23T18:28:08.648Z,11.96
2022-12-23T18:30:13.158Z,11.96
2022-12-23T18:32:23.250Z,11.93
2022-12-23T18:34:26.603Z,11.96
2022-12-23T18:36:33.168Z,11.84
2022-12-23T18:38:37.994Z,11.95
2022-12-23T18:40:42.802Z,11.90
2022-12-23T18:42:47.008Z,11.91
2022-12-23T18:44:50.314Z,11.89
2022-12-23T18:46:53.755Z,11.88
2022-12-23T18:48:57.295Z,11.87
2022-12-23T18:51:00.692Z,11.87
2022-12-23T18:53:04.689Z,11.85
2022-12-23T18:55:11.747Z,11.84
2022-12-23T18:57:15.120Z,11.84
2022-12-23T18:59:27.512Z,11.87
2022-12-23T19:01:33.229Z,11.91
2022-12-23T19:03:36.661Z,11.89
2022-12-23T19:05:40.181Z,11.92
2022-12-23T19:07:43.703Z,11.93
2022-12-23T19:09:47.050Z,11.93
2022-12-23T19:11:53.413Z,11.91
2022-12-23T19:13:56.768Z,11.91
2022-12-23T19:16:00.162Z,11.90
2022-12-23T19:18:03.523Z,11.92
2022-12-23T19:20:08.979Z,11.90
2022-12-23T19:22:12.419Z,11.91
2022-12-23T19:24:15.728Z,11.89
2022-12-23T19:26:19.150Z,11.89
2022-12-23T19:28:24.285Z,11.91
2022-12-23T19:30:27.718Z,11.94
2022-12-23T19:32:31.402Z,11.89
2022-12-23T19:34:35.102Z,11.88
2022-12-23T19:36:39.692Z,11.88
2022-12-23T19:38:43.343Z,11.85
2022-12-23T19:40:46.701Z,11.84
2022-12-23T19:42:50.043Z,11.79
2022-12-23T19:44:54.719Z,11.84
2022-12-23T19:46:58.130Z,11.83
2022-12-23T19:49:01.606Z,11.82
2022-12-23T19:51:07.643Z,11.82
2022-12-23T19:53:11.250Z,11.83
2022-12-23T19:55:15.619Z,11.80
2022-12-23T19:57:19.013Z,11.75
2022-12-23T19:59:22.507Z,11.76
2022-12-23T20:01:27.963Z,11.77
2022-12-23T20:03:31.436Z,11.78
2022-12-23T20:05:34.826Z,11.80
2022-12-23T20:07:38.276Z,11.77
2022-12-23T20:09:41.644Z,11.79
2022-12-23T20:11:46.673Z,11.77
2022-12-23T20:13:53.239Z,11.77
2022-12-23T20:15:56.690Z,11.80
2022-12-23T20:18:01.411Z,11.83
2022-12-23T20:20:06.994Z,11.85
2022-12-23T20:22:10.346Z,11.83
2022-12-23T20:24:14.438Z,11.82
2022-12-23T20:26:19.178Z,11.84
2022-12-23T20:28:22.556Z,11.84
2022-12-23T20:30:27.721Z,11.81
2022-12-23T20:32:31.088Z,11.84
2022-12-23T20:34:39.567Z,11.85
2022-12-23T20:36:43.574Z,11.91
2022-12-23T20:38:48.026Z,11.87
2022-12-23T20:40:51.514Z,11.85
2022-12-23T20:42:55.077Z,11.86
2022-12-23T20:44:58.371Z,11.83
2022-12-23T20:47:01.947Z,11.86
2022-12-23T20:49:05.695Z,11.88
2022-12-23T20:51:13.516Z,11.91
2022-12-23T20:53:17.527Z,11.87
2022-12-23T20:55:20.864Z,11.87
2022-12-23T20:57:24.587Z,11.85
2022-12-23T20:59:28.141Z,11.91
2022-12-23T21:01:33.103Z,11.90
2022-12-23T21:03:36.984Z,11.89
2022-12-23T21:05:40.537Z,11.90
2022-12-23T21:07:45.266Z,11.89
2022-12-23T21:09:48.729Z,11.85
2022-12-23T21:11:52.146Z,11.85
2022-12-23T21:13:57.764Z,11.85
2022-12-23T21:16:03.912Z,11.79
2022-12-23T21:18:07.343Z,11.76
2022-12-23T21:20:11.297Z,11.77
2022-12-23T21:22:14.668Z,11.69
2022-12-23T21:24:19.969Z,11.74
2022-12-23T21:26:25.107Z,11.70
2022-12-23T21:28:28.551Z,11.68
2022-12-23T21:30:31.943Z,11.71
2022-12-23T21:32:35.445Z,11.63
2022-12-23T21:34:39.032Z,11.66
2022-12-23T21:36:43.129Z,11.70
2022-12-23T21:38:46.719Z,11.71
2022-12-23T21:40:51.462Z,11.67
2022-12-23T21:42:54.863Z,11.68
2022-12-23T21:44:58.273Z,11.69
2022-12-23T21:47:01.615Z,11.61
2022-12-23T21:49:05.205Z,11.63
2022-12-23T21:51:11.488Z,11.61
2022-12-23T21:53:15.010Z,11.59
2022-12-23T21:55:18.381Z,11.57
2022-12-23T21:57:23.184Z,11.55
2022-12-23T21:59:32.819Z,11.47
2022-12-23T22:01:38.950Z,11.51
2022-12-23T22:03:43.291Z,11.48
2022-12-23T22:05:46.679Z,11.51
2022-12-23T22:07:50.113Z,11.46
2022-12-23T22:09:53.609Z,11.49
2022-12-23T22:11:57.725Z,11.45
2022-12-23T22:14:04.799Z,11.37
2022-12-23T22:16:10.732Z,11.41
2022-12-23T22:18:14.098Z,11.39
2022-12-23T22:20:17.573Z,11.39
2022-12-23T22:22:20.876Z,11.41
2022-12-23T22:24:24.369Z,11.43
2022-12-23T22:26:29.902Z,11.29
2022-12-23T22:28:34.842Z,11.39
2022-12-23T22:30:39.591Z,11.40
2022-12-23T22:32:43.032Z,11.39
2022-12-23T22:34:46.347Z,11.41
2022-12-23T22:36:50.867Z,11.39
2022-12-23T22:38:56.642Z,11.42
2022-12-23T22:41:00.046Z,11.43
2022-12-23T22:43:03.423Z,11.41
2022-12-23T22:45:09.182Z,11.39
2022-12-23T22:47:14.053Z,11.40
2022-12-23T22:49:18.020Z,11.42
2022-12-23T22:51:23.158Z,11.41
2022-12-23T22:53:29.868Z,11.40
2022-12-23T22:55:33.435Z,11.42
2022-12-23T22:57:36.832Z,11.39
2022-12-23T22:59:40.277Z,11.43
2022-12-23T23:01:43.697Z,11.44
2022-12-23T23:03:50.969Z,11.44
2022-12-23T23:05:59.569Z,11.40
2022-12-23T23:08:02.923Z,11.41
2022-12-23T23:10:07.595Z,11.41
2022-12-23T23:12:10.937Z,11.41
2022-12-23T23:14:14.668Z,11.40
2022-12-23T23:16:18.510Z,11.37
2022-12-23T23:18:21.934Z,11.36
2022-12-23T23:20:26.639Z,11.35
2022-12-23T23:22:30.024Z,11.36
2022-12-23T23:24:34.164Z,11.38
2022-12-23T23:26:37.574Z,11.39
2022-12-23T23:28:41.927Z,11.34
2022-12-23T23:30:45.590Z,11.33
2022-12-23T23:32:49.127Z,11.29
2022-12-23T23:34:52.526Z,11.26
2022-12-23T23:36:57.893Z,11.27
2022-12-23T23:39:01.192Z,11.32
2022-12-23T23:41:04.846Z,11.30
2022-12-23T23:43:08.308Z,11.42
2022-12-23T23:45:12.084Z,11.55
2022-12-23T23:47:15.591Z,11.66
2022-12-23T23:49:19.055Z,11.37
2022-12-23T23:51:22.358Z,11.37
2022-12-23T23:53:27.022Z,11.33
2022-12-23T23:55:30.790Z,11.28
2022-12-23T23:57:34.168Z,11.26
2022-12-23T23:59:37.676Z,11.22
